Аэропорт: Нахичевань. Нахичевань

ICAO: UBBN

METAR:
2019-09-21 16:00:00
UBBN 211600Z 29014KT 9999 SCT100 29/01 Q1003 R32L/CLRD// NOSIG RMK MT OP QFE679
METAR:
2019-09-21 11:03:00
TAF UBBN 211103Z 2112/2212 27010KT 9999 FEW040 FEW045CB BKN100 TX35/2112Z TN14/2202Z TEMPO 2112/2115 29020G30KT 3000 DS SCT040CB OVC080 TEMPO 2115/2124 30018KT SCT040CB BKN080